createdAt,value
2023-05-21T00:04:59.096Z,99394.56
2023-05-21T00:10:01.822Z,99394.78
2023-05-21T00:15:06.690Z,99386.09
2023-05-21T00:20:10.095Z,99384.44
2023-05-21T00:25:13.260Z,99370.16
2023-05-21T00:30:17.304Z,99376.19
2023-05-21T00:35:20.149Z,99362.94
2023-05-21T00:40:22.863Z,99362.13
2023-05-21T00:45:26.913Z,99355.31
2023-05-21T00:50:30.280Z,99349.09
2023-05-21T00:55:33.341Z,99344.75
2023-05-21T01:00:40.417Z,99340.25
2023-05-21T01:05:45.192Z,99339.19
2023-05-21T01:10:47.976Z,99351.00
2023-05-21T01:15:52.406Z,99341.88
2023-05-21T01:20:55.130Z,99337.75
2023-05-21T01:25:59.164Z,99338.56
2023-05-21T01:31:18.084Z,99333.41
2023-05-21T01:36:26.188Z,99323.28
2023-05-21T01:41:31.092Z,99322.88
2023-05-21T01:46:36.042Z,99331.34
2023-05-21T01:51:39.033Z,99326.38
2023-05-21T01:56:43.141Z,99325.75
2023-05-21T02:01:45.995Z,99321.63
2023-05-21T02:06:48.712Z,99313.78
2023-05-21T02:11:52.731Z,99318.56
2023-05-21T02:16:55.467Z,99316.28
2023-05-21T02:21:58.169Z,99314.63
2023-05-21T02:27:02.842Z,99324.78
2023-05-21T02:32:06.320Z,99318.56
2023-05-21T02:37:09.680Z,99315.06
2023-05-21T02:42:13.790Z,99317.94
2023-05-21T02:47:16.556Z,99318.19
2023-05-21T02:52:20.132Z,99316.50
2023-05-21T02:57:24.325Z,99312.19
2023-05-21T03:02:27.333Z,99310.13
2023-05-21T03:07:30.633Z,99305.56
2023-05-21T03:12:35.106Z,99306.00
2023-05-21T03:17:37.869Z,99303.53
2023-05-21T03:22:40.623Z,99298.56
2023-05-21T03:27:44.636Z,99293.19
2023-05-21T03:33:03.356Z,99298.16
2023-05-21T03:38:06.144Z,99298.16
2023-05-21T03:43:10.316Z,99294.66
2023-05-21T03:48:13.479Z,99294.03
2023-05-21T03:53:16.270Z,99294.88
2023-05-21T03:58:20.473Z,99303.75
2023-05-21T04:03:23.806Z,99297.56
2023-05-21T04:08:26.838Z,99305.84
2023-05-21T04:13:30.855Z,99294.03
2023-05-21T04:18:34.197Z,99296.72
2023-05-21T04:23:37.258Z,99302.94
2023-05-21T04:28:47.781Z,99303.56
2023-05-21T04:33:50.684Z,99301.91
2023-05-21T04:38:53.390Z,99299.00
2023-05-21T04:43:57.455Z,99298.16
2023-05-21T04:49:03.870Z,99298.16
2023-05-21T04:54:06.560Z,99295.28
2023-05-21T04:59:12.102Z,99301.91
2023-05-21T05:04:14.767Z,99304.16
2023-05-21T05:09:17.426Z,99306.44
2023-05-21T05:14:21.742Z,99299.81
2023-05-21T05:19:24.651Z,99292.59
2023-05-21T05:24:27.533Z,99293.84
2023-05-21T05:29:31.633Z,99297.13
2023-05-21T05:34:34.955Z,99299.19
2023-05-21T05:39:37.777Z,99299.81
2023-05-21T05:44:42.124Z,99303.94
2023-05-21T05:49:44.895Z,99305.94
2023-05-21T05:54:48.053Z,99301.00
2023-05-21T05:59:52.094Z,99297.44
2023-05-21T06:04:54.829Z,99293.94
2023-05-21T06:09:57.596Z,99288.56
2023-05-21T06:15:01.746Z,99285.03
2023-05-21T06:20:07.164Z,99284.19
2023-05-21T06:25:11.179Z,99278.59
2023-05-21T06:30:15.656Z,99274.44
2023-05-21T06:35:18.582Z,99280.09
2023-05-21T06:40:21.645Z,99271.91
2023-05-21T06:45:26.896Z,99273.25
2023-05-21T06:50:34.667Z,99270.63
2023-05-21T06:55:37.536Z,99274.66
2023-05-21T07:00:52.981Z,99280.94
2023-05-21T07:05:55.952Z,99282.19
2023-05-21T07:10:58.768Z,99281.81
2023-05-21T07:16:03.355Z,99289.25
2023-05-21T07:21:06.230Z,99302.03
2023-05-21T07:26:10.794Z,99303.25
2023-05-21T07:31:14.957Z,99304.91
2023-05-21T07:36:22.336Z,99314.03
2023-05-21T07:41:25.057Z,99303.88
2023-05-21T07:46:29.271Z,99297.47
2023-05-21T07:51:33.953Z,99301.59
2023-05-21T07:56:36.736Z,99302.66
2023-05-21T08:01:43.375Z,99306.97
2023-05-21T08:06:46.182Z,99311.53
2023-05-21T08:11:48.918Z,99309.84
2023-05-21T08:16:53.086Z,99312.09
2023-05-21T08:21:56.358Z,99309.19
2023-05-21T08:26:59.199Z,99317.25
2023-05-21T08:32:03.310Z,99318.69
2023-05-21T08:37:06.081Z,99324.59
2023-05-21T08:42:37.918Z,99315.47
2023-05-21T08:47:44.723Z,99317.91
2023-05-21T08:52:48.035Z,99314.16
2023-05-21T08:57:51.383Z,99315.78
2023-05-21T09:02:56.352Z,99301.28
2023-05-21T09:08:06.557Z,99297.69
2023-05-21T09:13:17.254Z,99284.22
2023-05-21T09:18:21.936Z,99274.03
2023-05-21T09:23:33.575Z,99275.91
2023-05-21T09:28:37.196Z,99276.38
2023-05-21T09:33:47.007Z,99273.66
2023-05-21T09:38:51.981Z,99276.13
2023-05-21T09:44:00.139Z,99282.78
2023-05-21T09:49:04.281Z,99282.56
2023-05-21T09:54:07.931Z,99287.97
2023-05-21T09:59:10.647Z,99290.81
2023-05-21T10:04:15.002Z,99288.69
2023-05-21T10:09:19.954Z,99289.53
2023-05-21T10:14:24.515Z,99277.09
2023-05-21T10:19:29.593Z,99269.97
2023-05-21T10:24:33.149Z,99269.41
2023-05-21T10:29:36.232Z,99259.66
2023-05-21T10:34:40.540Z,99262.34
2023-05-21T10:39:45.787Z,99257.19
2023-05-21T10:45:01.712Z,99241.03
2023-05-21T10:50:17.552Z,99230.00
2023-05-21T10:55:34.133Z,99227.91
2023-05-21T11:00:37.192Z,99236.00
2023-05-21T11:05:42.692Z,99240.31
2023-05-21T11:10:46.029Z,99227.44
2023-05-21T11:16:15.942Z,99218.31
2023-05-21T11:21:25.565Z,99229.13
2023-05-21T11:26:29.231Z,99221.59
2023-05-21T11:31:38.126Z,99224.91
2023-05-21T11:36:43.263Z,99224.69
2023-05-21T11:42:04.607Z,99215.53
2023-05-21T11:47:08.583Z,99210.75
2023-05-21T11:52:14.443Z,99219.78
2023-05-21T11:57:18.996Z,99213.59
2023-05-21T12:02:23.685Z,99205.28
2023-05-21T12:07:36.387Z,99207.97
2023-05-21T12:12:54.015Z,99206.66
2023-05-21T12:17:58.173Z,99196.72
2023-05-21T12:23:02.300Z,99197.09
2023-05-21T12:28:05.512Z,99187.13
2023-05-21T12:33:08.218Z,99194.75
2023-05-21T12:38:12.289Z,99199.94
2023-05-21T12:43:14.987Z,99200.75
2023-05-21T12:48:20.070Z,99190.56
2023-05-21T12:53:24.056Z,99194.91
2023-05-21T12:58:26.915Z,99195.50
2023-05-21T13:03:29.697Z,99192.34
2023-05-21T13:08:34.623Z,99188.63
2023-05-21T13:13:37.251Z,99192.94
2023-05-21T13:18:39.904Z,99176.56
2023-05-21T13:23:43.875Z,99174.00
2023-05-21T13:28:46.804Z,99165.66
2023-05-21T13:33:49.561Z,99167.88
2023-05-21T13:38:53.653Z,99160.38
2023-05-21T13:43:56.350Z,99167.44
2023-05-21T13:48:59.093Z,99157.22
2023-05-21T13:54:03.183Z,99159.47
2023-05-21T13:59:05.879Z,99151.38
2023-05-21T14:04:08.738Z,99150.31
2023-05-21T14:09:12.971Z,99143.03
2023-05-21T14:14:18.982Z,99143.41
2023-05-21T14:19:23.309Z,99146.69
2023-05-21T14:24:27.460Z,99142.94
2023-05-21T14:29:30.142Z,99140.00
2023-05-21T14:34:32.816Z,99148.94
2023-05-21T14:39:36.842Z,99143.28
2023-05-21T14:44:39.501Z,99137.44
2023-05-21T14:49:42.173Z,99148.00
2023-05-21T14:54:46.284Z,99151.28
2023-05-21T14:59:49.059Z,99151.88
2023-05-21T15:04:51.746Z,99152.72
2023-05-21T15:09:55.789Z,99145.19
2023-05-21T15:14:58.431Z,99146.03
2023-05-21T15:20:04.290Z,99146.59
2023-05-21T15:25:09.339Z,99138.28
2023-05-21T15:30:12.695Z,99138.06
2023-05-21T15:35:15.570Z,99124.28
2023-05-21T15:40:19.789Z,99125.13
2023-05-21T15:45:22.466Z,99120.31
2023-05-21T15:50:25.375Z,99109.28
2023-05-21T15:55:29.409Z,99095.78
2023-05-21T16:00:32.053Z,99108.81
2023-05-21T16:05:34.813Z,99111.28
2023-05-21T16:10:39.892Z,99107.53
2023-05-21T16:15:42.586Z,99104.59
2023-05-21T16:20:45.222Z,99108.94
2023-05-21T16:25:49.277Z,99110.34
2023-05-21T16:30:52.118Z,99103.88
2023-05-21T16:35:54.996Z,99102.56
2023-05-21T16:40:59.092Z,99100.69
2023-05-21T16:46:01.724Z,99097.75
2023-05-21T16:51:04.560Z,99097.53
2023-05-21T16:56:09.248Z,99101.88
2023-05-21T17:01:11.924Z,99107.06
2023-05-21T17:06:14.887Z,99112.00
2023-05-21T17:11:19.591Z,99100.13
2023-05-21T17:16:22.946Z,99105.31
2023-05-21T17:21:26.387Z,99110.72
2023-05-21T17:26:30.517Z,99117.53
2023-05-21T17:31:33.246Z,99123.75
2023-05-21T17:36:36.150Z,99122.66
2023-05-21T17:41:42.695Z,99120.56
2023-05-21T17:46:45.580Z,99127.63
2023-05-21T17:51:48.761Z,99128.19
2023-05-21T17:56:52.890Z,99131.75
2023-05-21T18:01:55.518Z,99130.66
2023-05-21T18:06:58.260Z,99121.28
2023-05-21T18:12:04.197Z,99129.38
2023-05-21T18:17:06.984Z,99116.47
2023-05-21T18:22:09.686Z,99121.59
2023-05-21T18:27:13.759Z,99133.00
2023-05-21T18:32:17.264Z,99131.72
2023-05-21T18:37:19.980Z,99125.22
2023-05-21T18:42:23.952Z,99127.72
2023-05-21T18:47:26.645Z,99132.03
2023-05-21T18:52:29.431Z,99130.19
2023-05-21T18:57:34.654Z,99139.94
2023-05-21T19:02:37.651Z,99141.56
2023-05-21T19:07:41.069Z,99141.56
2023-05-21T19:12:45.702Z,99153.78
2023-05-21T19:17:48.372Z,99144.84
2023-05-21T19:22:51.525Z,99152.72
2023-05-21T19:27:56.377Z,99146.50
2023-05-21T19:32:59.152Z,99159.75
2023-05-21T19:38:03.431Z,99157.88
2023-05-21T19:43:09.198Z,99156.84
2023-05-21T19:48:12.295Z,99158.00
2023-05-21T19:53:15.041Z,99155.06
2023-05-21T19:58:23.375Z,99157.50
2023-05-21T20:03:26.217Z,99164.81
2023-05-21T20:08:28.978Z,99165.63
2023-05-21T20:13:33.174Z,99159.16
2023-05-21T20:18:35.916Z,99158.91
2023-05-21T20:23:38.702Z,99163.28
2023-05-21T20:28:42.977Z,99158.47
2023-05-21T20:33:46.306Z,99159.03
2023-05-21T20:38:49.059Z,99161.50
2023-05-21T20:43:53.068Z,99156.69
2023-05-21T20:48:55.754Z,99144.78
2023-05-21T20:53:58.532Z,99137.88
2023-05-21T20:59:02.500Z,99124.69
2023-05-21T21:04:05.658Z,99121.25
2023-05-21T21:09:08.677Z,99129.47
2023-05-21T21:14:13.611Z,99136.50
2023-05-21T21:19:16.333Z,99136.03
2023-05-21T21:24:19.042Z,99139.56
2023-05-21T21:29:23.054Z,99137.69
2023-05-21T21:34:25.723Z,99134.97
2023-05-21T21:39:28.345Z,99133.72
2023-05-21T21:44:32.341Z,99124.78
2023-05-21T21:49:35.124Z,99131.00
2023-05-21T21:54:37.812Z,99132.41
2023-05-21T21:59:41.835Z,99123.91
2023-05-21T22:04:44.833Z,99118.88
2023-05-21T22:09:47.638Z,99127.59
2023-05-21T22:14:51.948Z,99123.47
2023-05-21T22:19:54.604Z,99121.59
2023-05-21T22:24:57.349Z,99116.19
2023-05-21T22:30:01.587Z,99108.06
2023-05-21T22:35:04.524Z,99112.41
2023-05-21T22:40:08.433Z,99108.06
2023-05-21T22:45:12.838Z,99106.19
2023-05-21T22:50:16.647Z,99107.25
2023-05-21T22:55:19.289Z,99106.41
2023-05-21T23:00:23.409Z,99112.91
2023-05-21T23:05:26.121Z,99109.13
2023-05-21T23:10:28.753Z,99110.19
2023-05-21T23:15:32.782Z,99118.50
2023-05-21T23:20:35.473Z,99122.28
2023-05-21T23:25:38.241Z,99127.34
2023-05-21T23:30:42.216Z,99118.66
2023-05-21T23:35:44.893Z,99121.84
2023-05-21T23:40:47.515Z,99119.03
2023-05-21T23:45:51.570Z,99117.38
2023-05-21T23:50:54.342Z,99110.94
2023-05-21T23:55:56.964Z,99114.94
